Time,TemperatureF,DewpointF,PressureIn,WindDirection,WindDirectionDegrees,WindSpeedMPH,WindSpeedGustMPH,Humidity,HourlyPrecipIn,Conditions,Clouds,dailyrainin,SoftwareType,DateUTC
2013-03-08 00:03:00,67.6,60.5,29.62,ENE,68,2.0,3.1,78,0.00,,,0.00,WSDL version 420,2013-03-07 22:03:00,
2013-03-08 00:08:00,67.4,60.3,29.62,ENE,68,1.2,4.9,78,0.00,,,0.00,WSDL version 420,2013-03-07 22:08:00,
2013-03-08 00:13:00,67.3,60.3,29.62,ENE,68,0.5,4.9,78,0.00,,,0.00,WSDL version 420,2013-03-07 22:13:00,
2013-03-08 00:18:00,67.3,60.2,29.62,East,90,0.0,4.7,78,0.00,,,0.00,WSDL version 420,2013-03-07 22:18:00,
2013-03-08 00:23:00,67.2,60.1,29.62,SE,143,0.0,3.4,78,0.00,,,0.00,WSDL version 420,2013-03-07 22:23:00,
2013-03-08 00:28:00,67.0,59.9,29.62,SE,128,0.6,1.3,78,0.00,,,0.00,WSDL version 420,2013-03-07 22:28:00,
2013-03-08 00:33:00,66.9,60.1,29.62,SE,129,0.3,1.3,79,0.00,,,0.00,WSDL version 420,2013-03-07 22:33:00,
2013-03-08 00:38:00,66.9,60.2,29.62,SSE,165,0.0,1.1,79,0.00,,,0.00,WSDL version 420,2013-03-07 22:38:00,
2013-03-08 00:48:00,66.9,60.2,29.62,South,188,0.8,2.5,79,0.00,,,0.00,WSDL version 420,2013-03-07 22:48:00,
2013-03-08 00:53:00,66.9,60.2,29.62,SE,135,0.0,2.5,79,0.00,,,0.00,WSDL version 420,2013-03-07 22:53:00,
2013-03-08 00:58:00,66.9,60.2,29.62,SE,128,0.0,1.3,79,0.00,,,0.00,WSDL version 420,2013-03-07 22:58:00,
2013-03-08 01:08:00,66.9,60.2,29.62,NE,39,0.9,2.2,79,0.00,,,0.00,WSDL version 420,2013-03-07 23:08:00,
2013-03-08 01:13:00,66.9,60.4,29.59,NNW,338,1.0,3.6,80,0.00,,,0.00,WSDL version 420,2013-03-07 23:13:00,
2013-03-08 01:23:00,66.9,60.6,29.59,WSW,240,0.0,0.0,80,0.00,,,0.00,WSDL version 420,2013-03-07 23:23:00,
2013-03-08 01:28:00,66.7,60.3,29.59,WSW,253,0.9,3.1,80,0.00,,,0.00,WSDL version 420,2013-03-07 23:28:00,
2013-03-08 01:33:00,66.7,60.4,29.59,NW,315,0.0,3.1,80,0.00,,,0.00,WSDL version 420,2013-03-07 23:33:00,
2013-03-08 01:38:00,66.7,60.4,29.59,NW,315,0.0,0.0,80,0.00,,,0.00,WSDL version 420,2013-03-07 23:38:00,
2013-03-08 01:43:00,66.7,60.4,29.59,SW,225,0.0,0.0,80,0.00,,,0.00,WSDL version 420,2013-03-07 23:43:00,
2013-03-08 01:48:00,66.7,60.4,29.59,NNE,15,0.9,2.5,80,0.00,,,0.00,WSDL version 420,2013-03-07 23:48:00,
2013-03-08 01:53:00,66.7,60.3,29.59,East,90,0.0,2.5,80,0.00,,,0.00,WSDL version 420,2013-03-07 23:53:00,
2013-03-08 20:10:00,65.5,61.5,29.80,WNW,300,3.3,4.7,87,0.00,,,0.29,WSDL version 420,2013-03-08 18:10:00,
2013-03-08 20:15:00,65.4,61.2,29.80,WNW,293,4.7,4.7,87,0.00,,,0.29,WSDL version 420,2013-03-08 18:15:00,
2013-03-08 20:20:00,65.3,61.2,29.80,WSW,255,5.0,5.8,87,0.00,,,0.29,WSDL version 420,2013-03-08 18:20:00,
2013-03-08 20:25:00,65.2,61.2,29.80,West,264,3.6,6.3,87,0.05,,,0.34,WSDL version 420,2013-03-08 18:25:00,
2013-03-08 20:35:00,65.0,60.9,29.80,WNW,285,6.3,6.5,87,0.09,,,0.38,WSDL version 420,2013-03-08 18:35:00,
2013-03-08 20:40:00,64.9,60.9,29.80,West,278,5.4,7.6,87,0.09,,,0.38,WSDL version 420,2013-03-08 18:40:00,
2013-03-08 20:45:00,64.9,61.1,29.80,NW,308,5.9,7.6,88,0.09,,,0.38,WSDL version 420,2013-03-08 18:45:00,
2013-03-08 20:50:00,64.9,60.8,29.83,WSW,248,5.4,8.1,87,0.13,,,0.42,WSDL version 420,2013-03-08 18:50:00,
2013-03-08 20:55:00,64.8,60.8,29.83,West,264,4.9,8.1,87,0.13,,,0.42,WSDL version 420,2013-03-08 18:55:00,
2013-03-08 21:00:00,64.7,61.0,29.83,West,270,5.8,7.4,88,0.13,,,0.42,WSDL version 420,2013-03-08 19:00:00,
2013-03-08 21:10:00,64.4,60.3,29.83,West,264,5.9,7.6,87,0.13,,,0.42,WSDL version 420,2013-03-08 19:10:00,
2013-03-08 21:15:00,64.4,60.5,29.85,West,270,4.7,6.5,88,0.13,,,0.42,WSDL version 420,2013-03-08 19:15:00,
2013-03-08 21:20:00,64.5,60.8,29.85,WNW,293,1.9,6.3,88,0.13,,,0.42,WSDL version 420,2013-03-08 19:20:00,
2013-03-08 21:25:00,64.6,60.9,29.85,WNW,293,2.8,3.6,88,0.08,,,0.42,WSDL version 420,2013-03-08 19:25:00,
2013-03-08 21:30:00,64.6,60.9,29.85,NW,315,3.4,3.8,88,0.04,,,0.42,WSDL version 420,2013-03-08 19:30:00,
2013-03-08 21:40:00,64.7,61.1,29.85,WSW,248,3.0,4.3,88,0.00,,,0.00,WSDL version 420,2013-03-08 19:40:00,
2013-03-08 21:45:00,64.6,60.9,29.85,West,270,3.4,4.9,88,0.00,,,0.00,WSDL version 420,2013-03-08 19:45:00,
2013-03-08 21:50:00,64.7,61.0,29.85,NW,315,4.1,6.0,88,0.00,,,0.00,WSDL version 420,2013-03-08 19:50:00,
2013-03-08 21:59:00,64.6,60.7,29.85,NW,308,5.3,6.0,87,0.00,,,0.42,WSDL version 420,2013-03-08 19:59:00,
2013-03-08 22:04:00,64.6,60.5,29.85,WNW,300,4.6,6.3,87,0.00,,,0.42,WSDL version 420,2013-03-08 20:04:00,
2013-03-08 22:09:00,64.6,60.3,29.85,NW,315,3.9,6.3,86,0.00,,,0.42,WSDL version 420,2013-03-08 20:09:00,
2013-03-08 22:14:00,64.4,59.9,29.85,WSW,248,7.2,8.7,84,0.00,,,0.42,WSDL version 420,2013-03-08 20:14:00,
2013-03-08 22:19:00,64.4,60.0,29.88,WNW,293,3.4,8.7,86,0.00,,,0.42,WSDL version 420,2013-03-08 20:19:00,
2013-03-08 22:24:00,64.3,59.9,29.88,West,276,5.5,6.3,86,0.00,,,0.42,WSDL version 420,2013-03-08 20:24:00,
2013-03-08 22:29:00,64.2,60.2,29.88,WNW,285,5.7,6.5,87,0.00,,,0.42,WSDL version 420,2013-03-08 20:29:00,
2013-03-08 22:34:00,64.2,60.2,29.85,WNW,285,5.8,6.5,87,0.00,,,0.42,WSDL version 420,2013-03-08 20:34:00,
2013-03-08 22:39:00,64.2,60.2,29.85,West,270,4.3,6.5,87,0.00,,,0.42,WSDL version 420,2013-03-08 20:39:00,
2013-03-08 22:44:00,64.2,60.2,29.85,West,278,3.7,6.5,87,0.00,,,0.42,WSDL version 420,2013-03-08 20:44:00,
2013-03-08 22:49:00,64.0,59.9,29.85,NW,308,5.4,6.5,86,0.00,,,0.42,WSDL version 420,2013-03-08 20:49:00,
2013-03-08 22:54:00,64.0,59.6,29.85,WNW,302,3.8,6.0,86,0.00,,,0.42,WSDL version 420,2013-03-08 20:54:00,
2013-03-08 22:59:00,64.2,59.6,29.85,WNW,300,5.5,6.3,84,0.00,,,0.42,WSDL version 420,2013-03-08 20:59:00,
2013-03-08 23:09:00,64.2,59.1,29.88,West,278,3.2,7.2,83,0.00,,,0.42,WSDL version 420,2013-03-08 21:09:00,
2013-03-08 23:14:00,63.9,58.9,29.88,WNW,293,5.2,7.2,83,0.00,,,0.42,WSDL version 420,2013-03-08 21:14:00,
2013-03-08 23:19:00,63.6,58.5,29.88,West,278,3.5,6.0,83,0.00,,,0.42,WSDL version 420,2013-03-08 21:19:00,
2013-03-08 23:24:00,63.5,58.4,29.88,WNW,287,3.7,6.0,83,0.00,,,0.42,WSDL version 420,2013-03-08 21:24:00,
2013-03-08 23:29:00,63.3,58.2,29.88,West,281,3.2,5.8,83,0.00,,,0.42,WSDL version 420,2013-03-08 21:29:00,
2013-03-08 23:34:00,63.2,58.1,29.88,West,270,4.7,5.8,83,0.00,,,0.42,WSDL version 420,2013-03-08 21:34:00,
2013-03-08 23:39:00,63.1,58.0,29.88,WNW,285,3.3,5.8,83,0.00,,,0.42,WSDL version 420,2013-03-08 21:39:00,
2013-03-08 23:44:00,63.0,57.8,29.88,West,278,2.9,5.6,83,0.00,,,0.42,WSDL version 420,2013-03-08 21:44:00,
2013-03-08 23:49:00,63.0,57.6,29.88,NNW,330,4.3,6.0,82,0.00,,,0.42,WSDL version 420,2013-03-08 21:49:00,
2013-03-08 23:54:00,63.0,57.5,29.88,West,281,4.0,6.0,82,0.00,,,0.42,WSDL version 420,2013-03-08 21:54:00,
2013-03-08 23:59:00,62.8,57.3,29.88,WNW,293,6.1,7.2,82,0.00,,,0.42,WSDL version 420,2013-03-08 21:59:00,